sensor_id;sensor_type;location;lat;lon;timestamp;P1;durP1;ratioP1;P2;durP2;ratioP2
59366;SDS011;45163;47.690;11.770;2023-06-22T00:02:17;62.80;;;58.97;;
59366;SDS011;45163;47.690;11.770;2023-06-22T00:04:44;67.27;;;62.87;;
59366;SDS011;45163;47.690;11.770;2023-06-22T00:07:10;90.80;;;84.83;;
59366;SDS011;45163;47.690;11.770;2023-06-22T00:09:36;122.50;;;114.77;;
59366;SDS011;45163;47.690;11.770;2023-06-22T00:12:02;154.03;;;143.53;;
59366;SDS011;45163;47.690;11.770;2023-06-22T00:14:28;175.10;;;163.37;;
59366;SDS011;45163;47.690;11.770;2023-06-22T00:16:54;113.70;;;106.20;;
59366;SDS011;45163;47.690;11.770;2023-06-22T00:19:22;108.63;;;101.27;;
59366;SDS011;45163;47.690;11.770;2023-06-22T00:21:51;117.03;;;109.40;;
59366;SDS011;45163;47.690;11.770;2023-06-22T00:24:19;99.43;;;92.83;;
59366;SDS011;45163;47.690;11.770;2023-06-22T00:26:46;76.23;;;70.77;;
59366;SDS011;45163;47.690;11.770;2023-06-22T00:29:13;71.90;;;67.17;;
59366;SDS011;45163;47.690;11.770;2023-06-22T00:31:39;63.50;;;59.43;;
59366;SDS011;45163;47.690;11.770;2023-06-22T00:34:05;67.33;;;62.83;;
59366;SDS011;45163;47.690;11.770;2023-06-22T00:36:34;61.97;;;58.10;;
59366;SDS011;45163;47.690;11.770;2023-06-22T00:39:01;78.50;;;73.57;;
59366;SDS011;45163;47.690;11.770;2023-06-22T00:41:28;76.53;;;71.83;;
59366;SDS011;45163;47.690;11.770;2023-06-22T00:43:54;69.33;;;65.03;;
59366;SDS011;45163;47.690;11.770;2023-06-22T00:46:21;74.47;;;69.80;;
59366;SDS011;45163;47.690;11.770;2023-06-22T00:48:48;80.13;;;75.30;;
59366;SDS011;45163;47.690;11.770;2023-06-22T00:51:16;80.23;;;75.30;;
59366;SDS011;45163;47.690;11.770;2023-06-22T00:53:42;75.13;;;70.53;;
59366;SDS011;45163;47.690;11.770;2023-06-22T00:56:08;72.37;;;67.80;;
59366;SDS011;45163;47.690;11.770;2023-06-22T00:58:38;73.00;;;68.53;;
59366;SDS011;45163;47.690;11.770;2023-06-22T01:01:07;71.67;;;67.23;;
59366;SDS011;45163;47.690;11.770;2023-06-22T01:03:33;68.67;;;64.57;;
59366;SDS011;45163;47.690;11.770;2023-06-22T01:06:06;69.27;;;64.80;;
59366;SDS011;45163;47.690;11.770;2023-06-22T01:14:06;64.83;;;60.93;;
59366;SDS011;45163;47.690;11.770;2023-06-22T01:16:35;69.77;;;65.67;;
59366;SDS011;45163;47.690;11.770;2023-06-22T01:19:49;66.83;;;62.80;;
59366;SDS011;45163;47.690;11.770;2023-06-22T01:22:07;50.20;;;47.03;;
59366;SDS011;45163;47.690;11.770;2023-06-22T01:24:42;47.03;;;44.23;;
59366;SDS011;45163;47.690;11.770;2023-06-22T01:27:31;44.07;;;41.20;;
59366;SDS011;45163;47.690;11.770;2023-06-22T01:30:07;37.33;;;34.80;;
59366;SDS011;45163;47.690;11.770;2023-06-22T01:32:36;34.03;;;31.60;;
59366;SDS011;45163;47.690;11.770;2023-06-22T01:35:04;29.27;;;27.40;;
59366;SDS011;45163;47.690;11.770;2023-06-22T01:37:33;27.60;;;25.63;;
59366;SDS011;45163;47.690;11.770;2023-06-22T01:40:01;25.70;;;24.07;;
59366;SDS011;45163;47.690;11.770;2023-06-22T01:42:30;24.50;;;22.60;;
59366;SDS011;45163;47.690;11.770;2023-06-22T01:44:56;24.83;;;23.13;;
59366;SDS011;45163;47.690;11.770;2023-06-22T01:47:23;28.40;;;26.50;;
59366;SDS011;45163;47.690;11.770;2023-06-22T01:49:50;29.87;;;27.90;;
59366;SDS011;45163;47.690;11.770;2023-06-22T01:52:19;31.00;;;29.00;;
59366;SDS011;45163;47.690;11.770;2023-06-22T01:54:46;36.47;;;33.90;;
59366;SDS011;45163;47.690;11.770;2023-06-22T01:57:13;37.60;;;35.20;;
59366;SDS011;45163;47.690;11.770;2023-06-22T02:02:24;39.83;;;37.10;;
59366;SDS011;45163;47.690;11.770;2023-06-22T02:05:08;77.13;;;72.20;;
59366;SDS011;45163;47.690;11.770;2023-06-22T02:07:41;73.43;;;69.00;;
59366;SDS011;45163;47.690;11.770;2023-06-22T02:10:13;77.23;;;72.37;;
59366;SDS011;45163;47.690;11.770;2023-06-22T02:12:41;74.00;;;69.40;;
59366;SDS011;45163;47.690;11.770;2023-06-22T02:15:09;74.17;;;69.60;;
59366;SDS011;45163;47.690;11.770;2023-06-22T02:17:38;84.13;;;79.07;;
59366;SDS011;45163;47.690;11.770;2023-06-22T02:20:04;84.27;;;79.17;;
59366;SDS011;45163;47.690;11.770;2023-06-22T02:22:33;88.53;;;83.03;;
59366;SDS011;45163;47.690;11.770;2023-06-22T02:24:59;82.33;;;77.20;;
59366;SDS011;45163;47.690;11.770;2023-06-22T02:27:25;84.73;;;79.63;;
59366;SDS011;45163;47.690;11.770;2023-06-22T02:29:51;87.70;;;82.70;;
59366;SDS011;45163;47.690;11.770;2023-06-22T02:32:17;93.90;;;88.57;;
59366;SDS011;45163;47.690;11.770;2023-06-22T02:34:43;100.63;;;94.97;;
59366;SDS011;45163;47.690;11.770;2023-06-22T02:37:13;120.17;;;113.57;;
59366;SDS011;45163;47.690;11.770;2023-06-22T02:39:42;126.40;;;119.30;;
59366;SDS011;45163;47.690;11.770;2023-06-22T02:42:08;125.30;;;117.93;;
59366;SDS011;45163;47.690;11.770;2023-06-22T02:44:36;136.20;;;127.67;;
59366;SDS011;45163;47.690;11.770;2023-06-22T02:47:02;122.70;;;113.87;;
59366;SDS011;45163;47.690;11.770;2023-06-22T02:49:29;121.13;;;112.13;;
59366;SDS011;45163;47.690;11.770;2023-06-22T02:51:55;109.90;;;101.47;;
59366;SDS011;45163;47.690;11.770;2023-06-22T02:54:21;108.07;;;100.10;;
59366;SDS011;45163;47.690;11.770;2023-06-22T02:56:47;111.33;;;104.00;;
59366;SDS011;45163;47.690;11.770;2023-06-22T02:59:13;105.20;;;98.53;;
59366;SDS011;45163;47.690;11.770;2023-06-22T03:01:39;97.60;;;91.37;;
59366;SDS011;45163;47.690;11.770;2023-06-22T03:04:06;101.37;;;94.80;;
59366;SDS011;45163;47.690;11.770;2023-06-22T03:06:33;85.23;;;79.57;;
59366;SDS011;45163;47.690;11.770;2023-06-22T03:09:00;68.23;;;63.80;;
59366;SDS011;45163;47.690;11.770;2023-06-22T03:11:29;70.43;;;65.70;;
59366;SDS011;45163;47.690;11.770;2023-06-22T03:13:56;74.30;;;69.57;;
59366;SDS011;45163;47.690;11.770;2023-06-22T03:16:23;66.20;;;61.87;;
59366;SDS011;45163;47.690;11.770;2023-06-22T03:18:49;65.40;;;61.13;;
59366;SDS011;45163;47.690;11.770;2023-06-22T03:21:15;57.93;;;54.13;;
59366;SDS011;45163;47.690;11.770;2023-06-22T03:23:42;54.50;;;51.07;;
59366;SDS011;45163;47.690;11.770;2023-06-22T03:26:09;45.60;;;42.47;;
59366;SDS011;45163;47.690;11.770;2023-06-22T03:28:36;53.57;;;50.27;;
59366;SDS011;45163;47.690;11.770;2023-06-22T03:31:03;44.07;;;41.37;;
59366;SDS011;45163;47.690;11.770;2023-06-22T03:33:29;44.80;;;41.80;;
59366;SDS011;45163;47.690;11.770;2023-06-22T03:35:55;37.70;;;35.40;;
59366;SDS011;45163;47.690;11.770;2023-06-22T03:38:21;33.40;;;31.23;;
59366;SDS011;45163;47.690;11.770;2023-06-22T03:40:47;29.00;;;27.13;;
59366;SDS011;45163;47.690;11.770;2023-06-22T03:43:13;34.07;;;31.83;;
59366;SDS011;45163;47.690;11.770;2023-06-22T03:45:39;38.03;;;35.60;;
59366;SDS011;45163;47.690;11.770;2023-06-22T03:48:05;36.93;;;34.47;;
59366;SDS011;45163;47.690;11.770;2023-06-22T03:50:31;32.30;;;30.37;;
59366;SDS011;45163;47.690;11.770;2023-06-22T03:52:57;29.73;;;27.87;;
59366;SDS011;45163;47.690;11.770;2023-06-22T03:55:23;28.47;;;26.50;;
59366;SDS011;45163;47.690;11.770;2023-06-22T03:57:49;25.97;;;24.20;;
59366;SDS011;45163;47.690;11.770;2023-06-22T04:00:15;35.30;;;33.10;;
59366;SDS011;45163;47.690;11.770;2023-06-22T04:02:42;61.00;;;56.97;;
59366;SDS011;45163;47.690;11.770;2023-06-22T04:05:10;54.77;;;51.10;;
59366;SDS011;45163;47.690;11.770;2023-06-22T04:07:36;54.13;;;50.70;;
59366;SDS011;45163;47.690;11.770;2023-06-22T04:10:03;50.43;;;47.13;;
59366;SDS011;45163;47.690;11.770;2023-06-22T04:12:30;43.97;;;41.03;;
59366;SDS011;45163;47.690;11.770;2023-06-22T04:14:56;33.77;;;31.53;;
59366;SDS011;45163;47.690;11.770;2023-06-22T04:17:22;37.03;;;34.50;;
59366;SDS011;45163;47.690;11.770;2023-06-22T04:19:50;34.53;;;32.27;;
59366;SDS011;45163;47.690;11.770;2023-06-22T04:22:17;22.00;;;20.13;;
59366;SDS011;45163;47.690;11.770;2023-06-22T04:24:43;15.30;;;14.03;;
59366;SDS011;45163;47.690;11.770;2023-06-22T04:27:10;14.10;;;13.03;;
59366;SDS011;45163;47.690;11.770;2023-06-22T04:29:36;12.10;;;11.10;;
59366;SDS011;45163;47.690;11.770;2023-06-22T04:32:03;12.93;;;11.90;;
59366;SDS011;45163;47.690;11.770;2023-06-22T04:34:31;17.53;;;15.93;;
59366;SDS011;45163;47.690;11.770;2023-06-22T04:36:57;32.03;;;30.00;;
59366;SDS011;45163;47.690;11.770;2023-06-22T04:39:23;39.77;;;37.27;;
59366;SDS011;45163;47.690;11.770;2023-06-22T04:41:51;39.97;;;37.57;;
59366;SDS011;45163;47.690;11.770;2023-06-22T04:44:17;35.90;;;33.67;;
59366;SDS011;45163;47.690;11.770;2023-06-22T04:46:53;31.87;;;29.77;;
59366;SDS011;45163;47.690;11.770;2023-06-22T04:49:26;23.63;;;21.97;;
59366;SDS011;45163;47.690;11.770;2023-06-22T04:51:59;33.73;;;31.53;;
59366;SDS011;45163;47.690;11.770;2023-06-22T04:54:25;30.90;;;28.87;;
59366;SDS011;45163;47.690;11.770;2023-06-22T04:56:52;78.87;;;73.80;;
59366;SDS011;45163;47.690;11.770;2023-06-22T04:59:24;95.27;;;89.07;;
59366;SDS011;45163;47.690;11.770;2023-06-22T05:01:54;65.70;;;61.83;;
59366;SDS011;45163;47.690;11.770;2023-06-22T05:04:21;62.97;;;58.87;;
59366;SDS011;45163;47.690;11.770;2023-06-22T05:06:49;74.17;;;69.70;;
59366;SDS011;45163;47.690;11.770;2023-06-22T05:09:15;112.53;;;106.10;;
59366;SDS011;45163;47.690;11.770;2023-06-22T05:11:43;89.60;;;84.30;;
59366;SDS011;45163;47.690;11.770;2023-06-22T05:14:09;65.07;;;61.07;;
59366;SDS011;45163;47.690;11.770;2023-06-22T05:16:36;60.27;;;56.50;;
59366;SDS011;45163;47.690;11.770;2023-06-22T05:19:02;55.03;;;51.43;;
59366;SDS011;45163;47.690;11.770;2023-06-22T05:21:31;42.20;;;39.17;;
59366;SDS011;45163;47.690;11.770;2023-06-22T05:23:57;72.93;;;68.47;;
59366;SDS011;45163;47.690;11.770;2023-06-22T05:26:31;149.07;;;139.90;;
59366;SDS011;45163;47.690;11.770;2023-06-22T05:28:58;146.43;;;138.03;;
59366;SDS011;45163;47.690;11.770;2023-06-22T05:31:26;158.20;;;149.13;;
59366;SDS011;45163;47.690;11.770;2023-06-22T05:33:53;80.77;;;75.67;;
59366;SDS011;45163;47.690;11.770;2023-06-22T05:36:20;77.80;;;72.90;;
59366;SDS011;45163;47.690;11.770;2023-06-22T05:38:49;80.63;;;75.80;;
59366;SDS011;45163;47.690;11.770;2023-06-22T05:41:15;85.20;;;80.27;;
59366;SDS011;45163;47.690;11.770;2023-06-22T05:43:41;115.63;;;108.60;;
59366;SDS011;45163;47.690;11.770;2023-06-22T05:46:07;114.50;;;107.70;;
59366;SDS011;45163;47.690;11.770;2023-06-22T05:48:33;123.23;;;115.83;;
59366;SDS011;45163;47.690;11.770;2023-06-22T05:50:59;148.93;;;139.63;;
59366;SDS011;45163;47.690;11.770;2023-06-22T05:53:25;132.33;;;124.03;;
59366;SDS011;45163;47.690;11.770;2023-06-22T05:55:51;145.83;;;136.33;;
59366;SDS011;45163;47.690;11.770;2023-06-22T05:58:17;150.77;;;141.17;;
59366;SDS011;45163;47.690;11.770;2023-06-22T06:00:43;129.17;;;121.27;;
59366;SDS011;45163;47.690;11.770;2023-06-22T06:03:10;100.90;;;94.57;;
59366;SDS011;45163;47.690;11.770;2023-06-22T06:05:36;48.30;;;44.97;;
59366;SDS011;45163;47.690;11.770;2023-06-22T06:08:04;64.83;;;60.87;;
59366;SDS011;45163;47.690;11.770;2023-06-22T06:10:32;154.30;;;144.17;;
59366;SDS011;45163;47.690;11.770;2023-06-22T06:12:59;160.07;;;150.13;;
59366;SDS011;45163;47.690;11.770;2023-06-22T06:15:30;137.43;;;128.93;;
59366;SDS011;45163;47.690;11.770;2023-06-22T06:17:57;118.30;;;111.13;;
59366;SDS011;45163;47.690;11.770;2023-06-22T06:20:24;60.10;;;56.30;;
59366;SDS011;45163;47.690;11.770;2023-06-22T06:22:52;84.00;;;78.90;;
59366;SDS011;45163;47.690;11.770;2023-06-22T06:25:18;139.07;;;130.63;;
59366;SDS011;45163;47.690;11.770;2023-06-22T06:27:46;154.23;;;145.23;;
59366;SDS011;45163;47.690;11.770;2023-06-22T06:30:13;110.73;;;103.90;;
59366;SDS011;45163;47.690;11.770;2023-06-22T06:32:40;210.15;;;197.45;;
59366;SDS011;45163;47.690;11.770;2023-06-22T06:35:07;173.10;;;162.05;;
59366;SDS011;45163;47.690;11.770;2023-06-22T06:37:37;185.02;;;174.23;;
59366;SDS011;45163;47.690;11.770;2023-06-22T06:40:07;291.65;;;273.90;;
59366;SDS011;45163;47.690;11.770;2023-06-22T06:42:36;254.88;;;238.15;;
59366;SDS011;45163;47.690;11.770;2023-06-22T06:45:06;285.10;;;267.63;;
59366;SDS011;45163;47.690;11.770;2023-06-22T06:47:33;287.80;;;270.27;;
59366;SDS011;45163;47.690;11.770;2023-06-22T06:49:59;104.65;;;98.53;;
59366;SDS011;45163;47.690;11.770;2023-06-22T06:52:25;115.40;;;108.43;;
59366;SDS011;45163;47.690;11.770;2023-06-22T06:54:52;148.43;;;139.48;;
59366;SDS011;45163;47.690;11.770;2023-06-22T06:57:18;277.38;;;259.88;;
59366;SDS011;45163;47.690;11.770;2023-06-22T06:59:46;368.98;;;346.02;;
59366;SDS011;45163;47.690;11.770;2023-06-22T07:02:12;173.10;;;161.93;;
59366;SDS011;45163;47.690;11.770;2023-06-22T07:04:38;237.52;;;222.52;;
59366;SDS011;45163;47.690;11.770;2023-06-22T07:07:04;146.95;;;138.48;;
59366;SDS011;45163;47.690;11.770;2023-06-22T07:09:30;164.02;;;154.55;;
59366;SDS011;45163;47.690;11.770;2023-06-22T07:11:56;213.30;;;201.32;;
59366;SDS011;45163;47.690;11.770;2023-06-22T07:14:22;214.43;;;201.82;;
59366;SDS011;45163;47.690;11.770;2023-06-22T07:16:48;127.35;;;119.80;;
59366;SDS011;45163;47.690;11.770;2023-06-22T07:19:14;145.10;;;135.77;;
59366;SDS011;45163;47.690;11.770;2023-06-22T07:21:40;157.52;;;148.02;;
59366;SDS011;45163;47.690;11.770;2023-06-22T07:24:06;196.68;;;184.85;;
59366;SDS011;45163;47.690;11.770;2023-06-22T07:26:33;106.72;;;100.28;;
59366;SDS011;45163;47.690;11.770;2023-06-22T07:28:59;162.63;;;153.07;;
59366;SDS011;45163;47.690;11.770;2023-06-22T07:31:25;220.05;;;207.43;;
59366;SDS011;45163;47.690;11.770;2023-06-22T07:33:52;335.15;;;313.70;;
59366;SDS011;45163;47.690;11.770;2023-06-22T07:36:18;288.38;;;271.60;;
59366;SDS011;45163;47.690;11.770;2023-06-22T07:38:44;171.80;;;161.45;;
59366;SDS011;45163;47.690;11.770;2023-06-22T07:41:10;169.40;;;159.00;;
59366;SDS011;45163;47.690;11.770;2023-06-22T07:43:36;363.00;;;340.70;;
59366;SDS011;45163;47.690;11.770;2023-06-22T07:46:03;392.75;;;368.48;;
59366;SDS011;45163;47.690;11.770;2023-06-22T07:48:29;370.85;;;347.65;;
59366;SDS011;45163;47.690;11.770;2023-06-22T07:50:55;251.35;;;237.13;;
59366;SDS011;45163;47.690;11.770;2023-06-22T07:53:21;229.20;;;215.57;;
59366;SDS011;45163;47.690;11.770;2023-06-22T07:55:49;233.80;;;220.05;;
59366;SDS011;45163;47.690;11.770;2023-06-22T07:58:15;360.35;;;336.98;;
59366;SDS011;45163;47.690;11.770;2023-06-22T08:00:44;326.30;;;305.35;;
59366;SDS011;45163;47.690;11.770;2023-06-22T08:03:10;292.02;;;272.75;;
59366;SDS011;45163;47.690;11.770;2023-06-22T08:05:36;231.63;;;217.50;;
59366;SDS011;45163;47.690;11.770;2023-06-22T08:08:02;240.77;;;226.75;;
59366;SDS011;45163;47.690;11.770;2023-06-22T08:10:28;342.75;;;322.40;;
59366;SDS011;45163;47.690;11.770;2023-06-22T08:12:54;377.05;;;354.10;;
59366;SDS011;45163;47.690;11.770;2023-06-22T08:15:20;406.08;;;380.20;;
59366;SDS011;45163;47.690;11.770;2023-06-22T08:17:47;403.60;;;378.30;;
59366;SDS011;45163;47.690;11.770;2023-06-22T08:20:13;410.98;;;384.50;;
59366;SDS011;45163;47.690;11.770;2023-06-22T08:22:40;338.65;;;317.27;;
59366;SDS011;45163;47.690;11.770;2023-06-22T08:25:07;191.02;;;179.38;;
59366;SDS011;45163;47.690;11.770;2023-06-22T08:27:34;196.23;;;185.05;;
59366;SDS011;45163;47.690;11.770;2023-06-22T08:30:01;181.65;;;170.55;;
59366;SDS011;45163;47.690;11.770;2023-06-22T08:32:27;176.95;;;166.43;;
59366;SDS011;45163;47.690;11.770;2023-06-22T08:34:57;137.77;;;129.80;;
59366;SDS011;45163;47.690;11.770;2023-06-22T08:37:23;139.73;;;131.52;;
59366;SDS011;45163;47.690;11.770;2023-06-22T08:39:57;147.48;;;139.13;;
59366;SDS011;45163;47.690;11.770;2023-06-22T08:42:24;184.98;;;174.48;;
59366;SDS011;45163;47.690;11.770;2023-06-22T08:44:51;288.88;;;271.85;;
59366;SDS011;45163;47.690;11.770;2023-06-22T08:47:17;203.90;;;192.10;;
59366;SDS011;45163;47.690;11.770;2023-06-22T08:49:43;117.90;;;111.05;;
59366;SDS011;45163;47.690;11.770;2023-06-22T08:52:09;178.40;;;167.60;;
59366;SDS011;45163;47.690;11.770;2023-06-22T08:54:35;280.98;;;264.38;;
59366;SDS011;45163;47.690;11.770;2023-06-22T08:57:01;321.65;;;302.80;;
59366;SDS011;45163;47.690;11.770;2023-06-22T08:59:28;210.95;;;198.75;;
59366;SDS011;45163;47.690;11.770;2023-06-22T09:01:54;286.70;;;270.13;;
59366;SDS011;45163;47.690;11.770;2023-06-22T09:04:20;231.65;;;218.05;;
59366;SDS011;45163;47.690;11.770;2023-06-22T09:06:48;153.52;;;144.68;;
59366;SDS011;45163;47.690;11.770;2023-06-22T09:09:15;199.13;;;187.75;;
59366;SDS011;45163;47.690;11.770;2023-06-22T09:11:42;310.42;;;291.73;;
59366;SDS011;45163;47.690;11.770;2023-06-22T09:14:08;390.88;;;367.25;;
59366;SDS011;45163;47.690;11.770;2023-06-22T09:16:35;173.85;;;163.95;;
59366;SDS011;45163;47.690;11.770;2023-06-22T09:19:01;266.25;;;247.57;;
59366;SDS011;45163;47.690;11.770;2023-06-22T09:21:27;154.93;;;144.43;;
59366;SDS011;45163;47.690;11.770;2023-06-22T09:23:53;237.23;;;222.45;;
59366;SDS011;45163;47.690;11.770;2023-06-22T09:26:20;228.13;;;215.27;;
59366;SDS011;45163;47.690;11.770;2023-06-22T09:28:49;251.52;;;236.13;;
59366;SDS011;45163;47.690;11.770;2023-06-22T09:31:15;287.50;;;268.48;;
59366;SDS011;45163;47.690;11.770;2023-06-22T09:33:42;301.58;;;281.35;;
59366;SDS011;45163;47.690;11.770;2023-06-22T09:36:08;284.63;;;268.27;;
59366;SDS011;45163;47.690;11.770;2023-06-22T09:38:35;276.70;;;260.40;;
59366;SDS011;45163;47.690;11.770;2023-06-22T09:41:04;190.68;;;178.85;;
59366;SDS011;45163;47.690;11.770;2023-06-22T09:43:31;149.05;;;138.88;;
59366;SDS011;45163;47.690;11.770;2023-06-22T09:45:58;261.77;;;244.95;;
59366;SDS011;45163;47.690;11.770;2023-06-22T09:48:24;300.92;;;281.23;;
59366;SDS011;45163;47.690;11.770;2023-06-22T09:50:56;310.88;;;291.48;;
59366;SDS011;45163;47.690;11.770;2023-06-22T09:53:22;288.38;;;270.05;;
59366;SDS011;45163;47.690;11.770;2023-06-22T09:55:48;194.93;;;183.65;;
59366;SDS011;45163;47.690;11.770;2023-06-22T09:58:14;151.82;;;141.63;;
59366;SDS011;45163;47.690;11.770;2023-06-22T10:00:40;264.58;;;250.10;;
59366;SDS011;45163;47.690;11.770;2023-06-22T10:03:07;341.02;;;321.08;;
59366;SDS011;45163;47.690;11.770;2023-06-22T10:05:33;518.13;;;485.38;;
59366;SDS011;45163;47.690;11.770;2023-06-22T10:07:59;442.27;;;414.70;;
59366;SDS011;45163;47.690;11.770;2023-06-22T10:10:25;402.17;;;376.73;;
59366;SDS011;45163;47.690;11.770;2023-06-22T10:12:55;361.67;;;339.67;;
59366;SDS011;45163;47.690;11.770;2023-06-22T10:15:23;336.45;;;316.40;;
59366;SDS011;45163;47.690;11.770;2023-06-22T10:17:49;432.42;;;404.83;;
59366;SDS011;45163;47.690;11.770;2023-06-22T10:20:15;424.98;;;395.25;;
59366;SDS011;45163;47.690;11.770;2023-06-22T10:22:44;388.95;;;361.33;;
59366;SDS011;45163;47.690;11.770;2023-06-22T10:25:11;273.63;;;254.13;;
59366;SDS011;45163;47.690;11.770;2023-06-22T10:27:38;253.75;;;239.07;;
59366;SDS011;45163;47.690;11.770;2023-06-22T10:30:06;333.73;;;313.60;;
59366;SDS011;45163;47.690;11.770;2023-06-22T10:32:33;326.80;;;307.23;;
59366;SDS011;45163;47.690;11.770;2023-06-22T10:34:59;339.38;;;318.10;;
59366;SDS011;45163;47.690;11.770;2023-06-22T10:37:25;317.73;;;297.95;;
59366;SDS011;45163;47.690;11.770;2023-06-22T10:39:51;318.50;;;298.67;;
59366;SDS011;45163;47.690;11.770;2023-06-22T10:42:17;301.50;;;283.70;;
59366;SDS011;45163;47.690;11.770;2023-06-22T10:44:43;180.60;;;170.35;;
59366;SDS011;45163;47.690;11.770;2023-06-22T10:47:10;150.25;;;141.15;;
59366;SDS011;45163;47.690;11.770;2023-06-22T10:49:39;164.07;;;154.65;;
59366;SDS011;45163;47.690;11.770;2023-06-22T10:52:06;270.80;;;255.43;;
59366;SDS011;45163;47.690;11.770;2023-06-22T10:54:33;278.98;;;262.10;;
59366;SDS011;45163;47.690;11.770;2023-06-22T10:57:00;284.52;;;267.55;;
59366;SDS011;45163;47.690;11.770;2023-06-22T10:59:27;198.95;;;187.73;;
59366;SDS011;45163;47.690;11.770;2023-06-22T11:01:55;167.70;;;157.85;;
59366;SDS011;45163;47.690;11.770;2023-06-22T11:04:21;226.25;;;212.95;;
59366;SDS011;45163;47.690;11.770;2023-06-22T11:06:48;312.75;;;293.85;;
59366;SDS011;45163;47.690;11.770;2023-06-22T11:09:15;260.10;;;243.95;;
59366;SDS011;45163;47.690;11.770;2023-06-22T11:11:46;277.77;;;259.58;;
59366;SDS011;45163;47.690;11.770;2023-06-22T11:14:13;301.90;;;283.65;;
59366;SDS011;45163;47.690;11.770;2023-06-22T11:16:39;529.80;;;495.42;;
59366;SDS011;45163;47.690;11.770;2023-06-22T11:19:05;457.80;;;426.13;;
59366;SDS011;45163;47.690;11.770;2023-06-22T11:21:32;239.52;;;226.13;;
59366;SDS011;45163;47.690;11.770;2023-06-22T11:23:58;255.40;;;241.60;;
59366;SDS011;45163;47.690;11.770;2023-06-22T11:26:25;436.27;;;411.10;;
59366;SDS011;45163;47.690;11.770;2023-06-22T11:28:55;475.70;;;443.58;;
59366;SDS011;45163;47.690;11.770;2023-06-22T11:31:21;520.60;;;486.27;;
59366;SDS011;45163;47.690;11.770;2023-06-22T11:33:47;306.30;;;286.48;;
59366;SDS011;45163;47.690;11.770;2023-06-22T11:36:14;319.40;;;297.83;;
59366;SDS011;45163;47.690;11.770;2023-06-22T11:38:40;389.27;;;361.00;;
59366;SDS011;45163;47.690;11.770;2023-06-22T11:41:06;464.55;;;430.42;;
59366;SDS011;45163;47.690;11.770;2023-06-22T11:43:33;486.20;;;449.88;;
59366;SDS011;45163;47.690;11.770;2023-06-22T11:45:59;427.23;;;396.67;;
59366;SDS011;45163;47.690;11.770;2023-06-22T11:48:26;412.85;;;387.45;;
59366;SDS011;45163;47.690;11.770;2023-06-22T11:50:52;475.05;;;445.13;;
59366;SDS011;45163;47.690;11.770;2023-06-22T11:53:20;407.75;;;384.95;;
59366;SDS011;45163;47.690;11.770;2023-06-22T11:55:47;325.95;;;306.90;;
59366;SDS011;45163;47.690;11.770;2023-06-22T11:58:14;254.02;;;239.30;;
59366;SDS011;45163;47.690;11.770;2023-06-22T12:00:40;538.90;;;503.42;;
59366;SDS011;45163;47.690;11.770;2023-06-22T12:03:07;350.75;;;327.58;;
59366;SDS011;45163;47.690;11.770;2023-06-22T12:05:34;398.92;;;375.70;;
59366;SDS011;45163;47.690;11.770;2023-06-22T12:08:00;341.35;;;320.63;;
59366;SDS011;45163;47.690;11.770;2023-06-22T12:10:27;311.83;;;293.63;;
59366;SDS011;45163;47.690;11.770;2023-06-22T12:12:55;256.50;;;241.10;;
59366;SDS011;45163;47.690;11.770;2023-06-22T12:15:23;276.55;;;259.77;;
59366;SDS011;45163;47.690;11.770;2023-06-22T12:17:49;446.20;;;413.42;;
59366;SDS011;45163;47.690;11.770;2023-06-22T12:20:15;314.00;;;295.02;;
59366;SDS011;45163;47.690;11.770;2023-06-22T12:22:41;273.10;;;257.30;;
59366;SDS011;45163;47.690;11.770;2023-06-22T12:25:08;392.70;;;368.50;;
59366;SDS011;45163;47.690;11.770;2023-06-22T12:27:34;346.13;;;325.67;;
59366;SDS011;45163;47.690;11.770;2023-06-22T12:30:01;354.20;;;332.25;;
59366;SDS011;45163;47.690;11.770;2023-06-22T12:32:28;318.45;;;297.52;;
59366;SDS011;45163;47.690;11.770;2023-06-22T12:34:54;306.05;;;286.10;;
59366;SDS011;45163;47.690;11.770;2023-06-22T12:37:20;314.65;;;294.13;;
59366;SDS011;45163;47.690;11.770;2023-06-22T12:39:47;306.30;;;286.40;;
59366;SDS011;45163;47.690;11.770;2023-06-22T12:42:13;292.80;;;274.65;;
59366;SDS011;45163;47.690;11.770;2023-06-22T12:44:39;289.17;;;271.25;;
59366;SDS011;45163;47.690;11.770;2023-06-22T12:47:07;307.63;;;289.00;;
59366;SDS011;45163;47.690;11.770;2023-06-22T12:49:34;329.00;;;308.88;;
59366;SDS011;45163;47.690;11.770;2023-06-22T12:52:01;340.98;;;319.50;;
59366;SDS011;45163;47.690;11.770;2023-06-22T12:54:28;319.83;;;300.38;;
59366;SDS011;45163;47.690;11.770;2023-06-22T12:56:55;325.35;;;305.25;;
59366;SDS011;45163;47.690;11.770;2023-06-22T12:59:21;310.42;;;292.17;;
59366;SDS011;45163;47.690;11.770;2023-06-22T13:01:47;253.63;;;237.00;;
59366;SDS011;45163;47.690;11.770;2023-06-22T13:04:13;330.45;;;309.80;;
59366;SDS011;45163;47.690;11.770;2023-06-22T13:06:47;323.55;;;302.42;;
59366;SDS011;45163;47.690;11.770;2023-06-22T13:09:13;361.35;;;338.63;;
59366;SDS011;45163;47.690;11.770;2023-06-22T13:11:40;351.60;;;331.27;;
59366;SDS011;45163;47.690;11.770;2023-06-22T13:14:07;291.75;;;275.38;;
59366;SDS011;45163;47.690;11.770;2023-06-22T13:16:33;218.77;;;206.75;;
59366;SDS011;45163;47.690;11.770;2023-06-22T13:18:59;368.00;;;345.60;;
59366;SDS011;45163;47.690;11.770;2023-06-22T13:21:25;273.48;;;258.08;;
59366;SDS011;45163;47.690;11.770;2023-06-22T13:23:51;217.98;;;205.70;;
59366;SDS011;45163;47.690;11.770;2023-06-22T13:26:17;209.45;;;197.48;;
59366;SDS011;45163;47.690;11.770;2023-06-22T13:28:43;239.80;;;226.55;;
59366;SDS011;45163;47.690;11.770;2023-06-22T13:31:09;216.70;;;204.40;;
59366;SDS011;45163;47.690;11.770;2023-06-22T13:33:37;227.48;;;214.70;;
59366;SDS011;45163;47.690;11.770;2023-06-22T13:36:03;288.88;;;272.95;;
59366;SDS011;45163;47.690;11.770;2023-06-22T13:38:31;310.42;;;292.98;;
59366;SDS011;45163;47.690;11.770;2023-06-22T13:40:58;301.45;;;282.90;;
59366;SDS011;45163;47.690;11.770;2023-06-22T13:43:26;358.48;;;332.17;;
59366;SDS011;45163;47.690;11.770;2023-06-22T13:45:53;305.75;;;283.70;;
59366;SDS011;45163;47.690;11.770;2023-06-22T13:48:19;299.85;;;281.42;;
59366;SDS011;45163;47.690;11.770;2023-06-22T13:50:45;295.58;;;278.40;;
59366;SDS011;45163;47.690;11.770;2023-06-22T13:53:11;245.95;;;231.88;;
59366;SDS011;45163;47.690;11.770;2023-06-22T13:55:37;174.10;;;163.10;;
59366;SDS011;45163;47.690;11.770;2023-06-22T13:58:03;263.38;;;247.75;;
59366;SDS011;45163;47.690;11.770;2023-06-22T14:00:29;223.60;;;210.63;;
59366;SDS011;45163;47.690;11.770;2023-06-22T14:02:55;223.27;;;210.57;;